Terminal Aerodrome Forecast
Issued by NWS

Home | Current Version | Previous Version | Text Only | Print | Product List | Glossary On
Versions: 1 2 3 4 5 6 7 8 9 10 11 12 13 14 15 16 17 18 19 20 21 22 23 24
000
FTUS46 KSEW 070302 AAB
TAFHQM
TAF AMD
KHQM 070302Z 0703/0724 23008KT P6SM OVC020
     FM070600 22005KT 6SM BR OVC012
     FM070900 19006KT 5SM BR OVC010
     FM072000 24010KT P6SM BKN015=

USA.gov is the U.S. government's official web portal to all federal, state and local government web resources and services.